McDade, Texas
Current Conditions -  °F | °C
As of 8:55 AM on Monday 22 Dec 2014 (Local Time) from KGYB Reporting Station
Overcast Overcast  
Wind Chill: 59°   Ceiling: 1600
Heat Index: 59°   Visibility: 10mi
Dew Point: 55°   Wind: 10mph
Humidity: 84%   Direction: 210°SSW
Pressure: 29.77"   Gusts: 18mph
Location:  30.28°N, 97.24°W
Report Text: KGYB 221455Z AUTO 21009G16KT 10SM OVC016 15/13 A2977 RMK AO2 T01520126
Loading
Personal Weather Stations






























Interactive Weather Map New forecast layout! Learn more

10-Day Weather Forecast

Advertisements
Track Severe Weather on mobile